スィクティフカル の空港の天気 - METARとTAF

Syktyvkar ( UUYY / SCW ) - ロシア スィクティフカル
飛行場実況気象(Metar)
観測時間04/26 14:00 MSK (04/26 11:00 UTC)
風向・風速南 6m/s
視程10km以上
天気現象
全天の4割程度の雲 雲底高度 1220m
気温10℃
湿度32%
気圧1005hPa
METARUUYY 261100Z 17006MPS 9999 SCT040 10/M06 Q1005 R18/61D NOSIG RMK QFE745/0994
過去の天気等 Google飛行場航空写真 Wunderground天気予報

過去48時間のMETAR

飛行場予報(TAF)
発表時間: 4/26 11:00 MSK (4/26 08:00 UTC)
予報対象時間: 26日12時 MSK ~ 27日12時 MSK
風向・風速南 6m/s 瞬間風速 12m/s
視程10km以上
全天の8割程度の積乱雲 雲底高度 610m
26日21時 MSK ~ 26日23時 MSK に徐々に
風向・風速南南東 3m/s 瞬間風速 8m/s
26日21時 MSK ~ 27日6時 MSK に一時的に
視程3,100m
天気現象弱いしゅう雨 もや
全天の8割程度の雲 雲底高度 340m
全天の8割程度の積乱雲 雲底高度 370m
27日6時 MSK から
風向・風速南 3m/s 瞬間風速 8m/s
視程4,000m
天気現象弱いしゅう雨 もや
全天の8割程度の雲 雲底高度 340m
全天の8割程度の積乱雲 雲底高度 460m
TAF UUYY 260800Z 2609/2709 19006G12MPS 9999 BKN020CB
BECMG 2618/2620 15003G08MPS
TEMPO 2618/2703 3100 -SHRA BR BKN011 BKN012CB
FM270300 18003G08MPS 4000 -SHRA BR BKN011 BKN015CB